Norris Observed Data For Previous 48 Hours

Caption
Day and Hour Reservoir Elevation (behind dam)* Tailwater Elevation (below dam)* Average Hourly Discharge*
1/18/2018 2 AM EST 998.87 825.33 4,183
1/18/2018 3 AM EST 998.87 825.36 4,190
1/18/2018 4 AM EST 998.86 825.34 4,177
1/18/2018 5 AM EST 998.84 825.36 4,179
1/18/2018 6 AM EST 998.85 825.36 4,178
1/18/2018 7 AM EST 998.83 825.37 4,186
1/18/2018 8 AM EST 998.83 825.37 4,194
1/18/2018 9 AM EST 998.83 825.33 4,193
1/18/2018 10 AM EST 998.82 825.36 4,181
1/18/2018 11 AM EST 998.80 825.34 4,183
1/18/2018 12 PM EST 998.80 825.29 4,180
1/18/2018 1 PM EST 998.80 824.99 3,999
1/18/2018 2 PM EST 998.81 824.80 3,321
1/18/2018 3 PM EST 998.83 822.31 164
1/18/2018 4 PM EST 998.81 821.86 20
1/18/2018 5 PM EST 998.83 821.67 20
1/18/2018 6 PM EST 998.80 822.42 96
1/18/2018 7 PM EST 998.81 824.98 3,498
1/18/2018 8 PM EST 998.83 825.35 4,181
1/18/2018 9 PM EST 998.83 825.34 4,170
1/18/2018 10 PM EST 998.80 825.35 4,178
1/18/2018 11 PM EST 998.82 825.39 4,169
1/19/2018 12 AM EST 998.79 825.41 4,176
1/19/2018 1 AM EST 998.78 825.41 4,180
1/19/2018 2 AM EST 998.79 825.35 4,188
1/19/2018 3 AM EST 998.78 825.35 4,187
1/19/2018 4 AM EST 998.79 825.39 4,190
1/19/2018 5 AM EST 998.75 825.36 4,180
1/19/2018 6 AM EST 998.77 825.40 4,183
1/19/2018 7 AM EST 998.75 825.32 4,214
1/19/2018 8 AM EST 998.75 825.37 4,208
1/19/2018 9 AM EST 998.74 825.42 4,213
1/19/2018 10 AM EST 998.73 825.36 4,198
1/19/2018 11 AM EST 998.72 825.38 4,209
1/19/2018 12 PM EST 998.72 825.35 4,206
1/19/2018 1 PM EST 998.69 825.34 4,209
1/19/2018 2 PM EST 998.70 824.77 3,353
1/19/2018 3 PM EST 998.73 822.31 165
1/19/2018 4 PM EST 998.71 821.85 20
1/19/2018 5 PM EST 998.71 821.67 20
1/19/2018 6 PM EST 998.70 822.39 95
1/19/2018 7 PM EST 998.71 824.94 3,494
1/19/2018 8 PM EST 998.71 825.29 4,169
1/19/2018 9 PM EST 998.71 825.34 4,171
1/19/2018 10 PM EST 998.70 825.33 4,161
1/19/2018 11 PM EST 998.69 825.28 4,172
1/20/2018 12 AM EST 998.68 825.33 4,164
1/20/2018 1 AM EST 998.67 825.26 4,169
1/20/2018 2 AM EST 998.71 822.40 287
1/20/2018 3 AM EST 998.69 821.88 20
1/20/2018 4 AM EST 998.69 821.68 20
1/20/2018 5 AM EST 998.70 821.54 20
1/20/2018 6 AM EST 998.73 821.41 20
1/20/2018 7 AM EST 998.69 822.20 90
1/20/2018 8 AM EST 998.70 824.51 3,317
1/20/2018 9 AM EST 998.71 824.75 3,324
1/20/2018 10 AM EST 998.70 824.76 3,335
1/20/2018 11 AM EST 998.68 824.74 3,328
1/20/2018 12 PM EST 998.66 824.77 3,321
1/20/2018 1 PM EST 998.68 824.75 3,324
1/20/2018 2 PM EST 998.70 822.30 166
1/20/2018 3 PM EST 998.69 821.85 20
1/20/2018 4 PM EST 998.68 821.66 20
1/20/2018 5 PM EST 998.70 821.52 20
1/20/2018 6 PM EST 998.71 821.39 20
1/20/2018 7 PM EST 998.72 821.27 20
1/20/2018 8 PM EST 998.73 821.16 20
1/20/2018 9 PM EST 998.71 821.07 20

Elevations are in feet above sea level. Discharges are in cubic feet per second and are reported at the end of the hour.